Terminal Aerodrome Forecast
Issued by NWS Charleston, WV

Home | Current Version | Previous Version | Text Only | Print | Product List | Glossary On
Versions: 1 2 3 4 5 6 7 8 9 10 11 12 13 14 15 16 17 18 19 20 21 22 23 24
000
FTUS41 KRLX 242343
TAFCRW
TAF
KCRW 242343Z 2500/2524 15011G17KT P6SM OVC060
     FM250230 16008KT 5SM SHRA OVC040
     FM250400 20006KT P6SM OVC026
     FM252000 22007KT 6SM SHRA OVC026
     FM252300 24007KT 4SM SHRA OVC008=

USA.gov is the U.S. government's official web portal to all federal, state and local government web resources and services.